Time;durP1;ratioP1;P1;durP2;ratioP2;P2;SDS_P1;SDS_P2;PMS_P1;PMS_P2;Temp;Humidity;BMP_temperature;BMP_pressure;BME280_temperature;BME280_humidity;BME280_pressure;Samples;Min_cycle;Max_cycle;Signal;HPM_P1;HPM_P2
2023/03/23 00:02:15;;;;;;;11.18;10.48;;;;;;;;;;4992846;28;20038;-55
2023/03/23 00:04:42;;;;;;;11.30;10.57;;;;;;;;;;4995084;28;20049;-58
2023/03/23 00:07:08;;;;;;;12.65;11.75;;;;;;;;;;4994765;28;20042;-56
2023/03/23 00:09:41;;;;;;;11.93;11.23;;;;;;;;;;4994005;28;20092;-56
2023/03/23 00:12:07;;;;;;;12.73;11.93;;;;;;;;;;4997382;28;20033;-56
2023/03/23 00:14:41;;;;;;;11.23;10.52;;;;;;;;;;4993867;28;20033;-56
2023/03/23 00:17:10;;;;;;;11.45;10.75;;;;;;;;;;4990242;28;20029;-57
2023/03/23 00:19:45;;;;;;;12.15;11.45;;;;;;;;;;4994763;28;20333;-55
2023/03/23 00:22:12;;;;;;;12.32;11.63;;;;;;;;;;4991371;28;20045;-55
2023/03/23 00:24:37;;;;;;;12.77;11.98;;;;;;;;;;4995407;28;20038;-56
2023/03/23 00:27:03;;;;;;;13.45;12.65;;;;;;;;;;4991497;28;20482;-55
2023/03/23 00:29:28;;;;;;;13.15;12.38;;;;;;;;;;4992186;28;20130;-56
2023/03/23 00:31:56;;;;;;;14.25;13.45;;;;;;;;;;4999471;28;20061;-56
2023/03/23 00:34:24;;;;;;;13.13;12.32;;;;;;;;;;4994971;28;20169;-55
2023/03/23 00:36:56;;;;;;;12.85;12.05;;;;;;;;;;4994086;28;20030;-56
2023/03/23 00:39:24;;;;;;;13.55;12.75;;;;;;;;;;4994352;28;20066;-56
2023/03/23 00:41:50;;;;;;;15.20;14.20;;;;;;;;;;4995630;28;20034;-56
2023/03/23 00:44:19;;;;;;;12.85;12.15;;;;;;;;;;4996460;28;20120;-56
2023/03/23 00:46:49;;;;;;;13.73;12.93;;;;;;;;;;4992883;28;20121;-56
2023/03/23 00:49:17;;;;;;;13.63;12.82;;;;;;;;;;4992973;28;20358;-56
2023/03/23 00:51:44;;;;;;;13.68;12.88;;;;;;;;;;4996442;28;20041;-56
2023/03/23 00:54:09;;;;;;;13.70;12.90;;;;;;;;;;4982362;28;20148;-56
2023/03/23 00:56:35;;;;;;;14.32;13.52;;;;;;;;;;4999324;28;20515;-56
2023/03/23 00:59:01;;;;;;;13.90;13.00;;;;;;;;;;4994165;28;20069;-56
2023/03/23 01:01:27;;;;;;;15.55;14.65;;;;;;;;;;4996944;28;20375;-57
2023/03/23 01:04:00;;;;;;;14.60;13.80;;;;;;;;;;4993247;28;20120;-57
2023/03/23 01:06:30;;;;;;;14.98;14.07;;;;;;;;;;4995675;28;20532;-59
2023/03/23 01:08:57;;;;;;;14.88;14.07;;;;;;;;;;4995635;28;20121;-56
2023/03/23 01:11:23;;;;;;;18.95;17.95;;;;;;;;;;4994011;28;20601;-56
2023/03/23 01:13:48;;;;;;;19.35;18.25;;;;;;;;;;4993981;28;20034;-56
2023/03/23 01:16:14;;;;;;;18.98;17.98;;;;;;;;;;4991947;28;20044;-57
2023/03/23 01:18:40;;;;;;;19.02;18.02;;;;;;;;;;5001744;28;20064;-56
2023/03/23 01:21:08;;;;;;;19.73;18.63;;;;;;;;;;4993310;28;20049;-56
2023/03/23 01:23:34;;;;;;;20.63;19.52;;;;;;;;;;4993919;28;20096;-56
2023/03/23 01:26:11;;;;;;;19.38;18.30;;;;;;;;;;4994615;28;20037;-56
2023/03/23 01:28:37;;;;;;;20.63;19.52;;;;;;;;;;4988992;28;20121;-55
2023/03/23 01:31:05;;;;;;;19.80;18.70;;;;;;;;;;4989828;28;20041;-56
2023/03/23 01:33:32;;;;;;;19.90;18.80;;;;;;;;;;4987094;28;20073;-57
2023/03/23 01:36:01;;;;;;;20.30;19.20;;;;;;;;;;4993805;28;20038;-56
2023/03/23 01:38:26;;;;;;;20.75;19.55;;;;;;;;;;4994013;28;20048;-56
2023/03/23 01:40:52;;;;;;;20.33;19.23;;;;;;;;;;4994021;28;20030;-57
2023/03/23 01:43:17;;;;;;;19.83;18.73;;;;;;;;;;4990755;28;20480;-58
2023/03/23 01:45:43;;;;;;;17.98;16.98;;;;;;;;;;4992140;28;20041;-56
2023/03/23 01:48:25;;;;;;;18.27;17.17;;;;;;;;;;4993085;28;20030;-59
2023/03/23 01:51:06;;;;;;;17.70;16.60;;;;;;;;;;4984451;28;20052;-56
2023/03/23 01:53:39;;;;;;;16.63;15.73;;;;;;;;;;4992860;28;20034;-56
2023/03/23 01:56:08;;;;;;;17.65;16.65;;;;;;;;;;4993524;28;20038;-57
2023/03/23 01:58:36;;;;;;;16.27;15.38;;;;;;;;;;4994364;28;20042;-56
2023/03/23 02:01:06;;;;;;;16.05;15.15;;;;;;;;;;4994839;28;20098;-55
2023/03/23 02:03:32;;;;;;;14.70;13.90;;;;;;;;;;4991139;28;20389;-57
2023/03/23 02:05:58;;;;;;;15.25;14.35;;;;;;;;;;4996069;28;20126;-56
2023/03/23 02:08:27;;;;;;;14.48;13.68;;;;;;;;;;4998169;28;20471;-56
2023/03/23 02:10:53;;;;;;;15.43;14.52;;;;;;;;;;4994648;28;20034;-57
2023/03/23 02:13:19;;;;;;;15.57;14.68;;;;;;;;;;4997232;28;20096;-57
2023/03/23 02:15:56;;;;;;;15.88;14.98;;;;;;;;;;4997285;28;20091;-56
2023/03/23 02:19:01;;;;;;;15.85;14.95;;;;;;;;;;4994471;28;20042;-57
2023/03/23 02:21:54;;;;;;;14.85;14.02;;;;;;;;;;4998313;28;20050;-57
2023/03/23 02:24:39;;;;;;;15.95;15.05;;;;;;;;;;4996281;28;20041;-57
2023/03/23 02:27:29;;;;;;;14.20;13.40;;;;;;;;;;4993965;28;20037;-57
2023/03/23 02:30:22;;;;;;;16.03;15.13;;;;;;;;;;4993625;28;20069;-57
2023/03/23 02:33:05;;;;;;;14.70;13.90;;;;;;;;;;4995714;28;20160;-57
2023/03/23 02:35:36;;;;;;;14.75;13.48;;;;;;;;;;4997865;28;20039;-57
2023/03/23 02:38:05;;;;;;;;;;;;;;;;;;4998578;28;20728;-56
2023/03/23 02:40:36;;;;;;;15.48;14.57;;;;;;;;;;4996926;28;20016;-56
2023/03/23 02:43:06;;;;;;;15.45;14.55;;;;;;;;;;4999733;28;20041;-56
2023/03/23 02:45:34;;;;;;;15.38;14.48;;;;;;;;;;4996937;28;20091;-57
2023/03/23 02:48:02;;;;;;;16.13;15.23;;;;;;;;;;4994932;28;20038;-57
2023/03/23 02:50:28;;;;;;;20.10;19.00;;;;;;;;;;4997611;28;20115;-57
2023/03/23 02:52:58;;;;;;;20.92;19.83;;;;;;;;;;4995940;28;20041;-56
2023/03/23 02:55:24;;;;;;;19.63;18.52;;;;;;;;;;4996273;28;20049;-57
2023/03/23 02:57:51;;;;;;;19.17;18.15;;;;;;;;;;4997943;28;20731;-57
2023/03/23 03:00:18;;;;;;;19.02;18.02;;;;;;;;;;4994773;28;20384;-56
2023/03/23 03:02:47;;;;;;;20.08;18.98;;;;;;;;;;4998034;28;20063;-55
2023/03/23 03:05:33;;;;;;;19.90;18.80;;;;;;;;;;4995939;28;20049;-54
2023/03/23 03:08:39;;;;;;;20.05;18.95;;;;;;;;;;4995512;28;20084;-54
2023/03/23 03:11:16;;;;;;;19.00;17.95;;;;;;;;;;4993972;28;20068;-55
2023/03/23 03:13:47;;;;;;;18.40;17.40;;;;;;;;;;4995393;28;20026;-56
2023/03/23 03:16:35;;;;;;;17.83;16.83;;;;;;;;;;5007885;28;20133;-56
2023/03/23 03:19:38;;;;;;;16.52;15.52;;;;;;;;;;4992426;28;20093;-56
2023/03/23 03:22:04;;;;;;;16.40;15.48;;;;;;;;;;4978500;28;20396;-57
2023/03/23 03:24:31;;;;;;;14.93;14.10;;;;;;;;;;4995085;28;20045;-56
2023/03/23 03:27:00;;;;;;;14.95;13.85;;;;;;;;;;4996411;28;20038;-56
2023/03/23 03:29:30;;;;;;;13.55;12.75;;;;;;;;;;4996465;28;20030;-55
2023/03/23 03:31:58;;;;;;;13.85;12.95;;;;;;;;;;4995155;28;20368;-55
2023/03/23 03:34:24;;;;;;;12.70;11.90;;;;;;;;;;4995689;28;20034;-55
2023/03/23 03:36:53;;;;;;;11.85;11.15;;;;;;;;;;4996992;28;20660;-56
2023/03/23 03:39:20;;;;;;;12.00;11.30;;;;;;;;;;4995107;28;20034;-56
2023/03/23 03:41:45;;;;;;;11.30;10.60;;;;;;;;;;4995019;28;20344;-55
2023/03/23 03:44:11;;;;;;;11.98;11.27;;;;;;;;;;4992819;28;20038;-57
2023/03/23 03:46:37;;;;;;;12.32;11.52;;;;;;;;;;4997419;28;20099;-55
2023/03/23 03:49:06;;;;;;;10.60;10.00;;;;;;;;;;4993843;28;20519;-56
2023/03/23 03:51:32;;;;;;;12.52;11.73;;;;;;;;;;4994905;28;20048;-56
2023/03/23 03:53:57;;;;;;;13.13;12.32;;;;;;;;;;4996024;28;20038;-56
2023/03/23 03:56:23;;;;;;;13.20;12.40;;;;;;;;;;4994752;28;20073;-56
2023/03/23 03:58:50;;;;;;;15.07;14.23;;;;;;;;;;4993136;28;20029;-56
2023/03/23 04:01:18;;;;;;;12.48;11.77;;;;;;;;;;4995066;28;20632;-56
2023/03/23 04:03:44;;;;;;;15.88;14.98;;;;;;;;;;4993979;28;20117;-55
2023/03/23 04:06:09;;;;;;;15.60;14.70;;;;;;;;;;5008290;28;20524;-55
2023/03/23 04:08:37;;;;;;;17.05;16.13;;;;;;;;;;4992265;28;20041;-56
2023/03/23 04:11:04;;;;;;;16.35;15.40;;;;;;;;;;4995236;28;20192;-56
2023/03/23 04:13:29;;;;;;;18.65;17.65;;;;;;;;;;4994150;28;20161;-56
2023/03/23 04:15:55;;;;;;;18.77;17.48;;;;;;;;;;4991426;28;20033;-55
2023/03/23 04:18:21;;;;;;;17.60;16.60;;;;;;;;;;4993363;28;20038;-56
2023/03/23 04:20:48;;;;;;;20.42;19.13;;;;;;;;;;4993861;28;20100;-55
2023/03/23 04:23:19;;;;;;;18.35;17.35;;;;;;;;;;4997719;28;20152;-56
2023/03/23 04:25:46;;;;;;;22.58;21.38;;;;;;;;;;4992687;28;20022;-55
2023/03/23 04:28:12;;;;;;;20.13;19.02;;;;;;;;;;4991840;28;20030;-56
2023/03/23 04:30:37;;;;;;;21.75;20.58;;;;;;;;;;4991590;28;20080;-55
2023/03/23 04:33:03;;;;;;;22.98;21.73;;;;;;;;;;4995547;28;20117;-54
2023/03/23 04:35:29;;;;;;;22.35;21.17;;;;;;;;;;4993541;28;20755;-55
2023/03/23 04:37:55;;;;;;;22.17;21.00;;;;;;;;;;4992846;28;20116;-54
2023/03/23 04:40:21;;;;;;;22.30;21.10;;;;;;;;;;4989972;28;20704;-52
2023/03/23 04:42:48;;;;;;;19.52;18.45;;;;;;;;;;4995186;28;20030;-53
2023/03/23 04:45:21;;;;;;;19.48;18.42;;;;;;;;;;4991422;28;20140;-52
2023/03/23 04:47:52;;;;;;;19.65;18.58;;;;;;;;;;4995380;28;20030;-52
2023/03/23 04:50:19;;;;;;;20.33;19.23;;;;;;;;;;4993516;28;20034;-54
2023/03/23 04:52:45;;;;;;;19.35;18.27;;;;;;;;;;5009755;28;20116;-54
2023/03/23 04:55:12;;;;;;;18.92;17.90;;;;;;;;;;4984877;28;20219;-54
2023/03/23 04:57:38;;;;;;;18.70;17.67;;;;;;;;;;4992235;28;20034;-54
2023/03/23 05:00:08;;;;;;;18.02;17.02;;;;;;;;;;4990793;28;20092;-56
2023/03/23 05:02:39;;;;;;;18.45;17.45;;;;;;;;;;4994476;28;20136;-55
2023/03/23 05:05:06;;;;;;;16.63;15.63;;;;;;;;;;4993877;28;20041;-54
2023/03/23 05:07:31;;;;;;;16.55;15.60;;;;;;;;;;4994783;28;20035;-54
2023/03/23 05:09:57;;;;;;;16.60;15.68;;;;;;;;;;4992982;28;20095;-55
2023/03/23 05:12:22;;;;;;;16.70;15.70;;;;;;;;;;4998396;28;20072;-54
2023/03/23 05:14:48;;;;;;;17.48;16.42;;;;;;;;;;4993062;28;20500;-55
2023/03/23 05:17:16;;;;;;;16.02;15.13;;;;;;;;;;4992036;28;20046;-55
2023/03/23 05:19:47;;;;;;;16.10;15.20;;;;;;;;;;4991466;28;20066;-54
2023/03/23 05:22:14;;;;;;;15.88;14.98;;;;;;;;;;4991872;28;20042;-55
2023/03/23 05:24:40;;;;;;;14.95;14.13;;;;;;;;;;4992265;28;20088;-51
2023/03/23 05:27:07;;;;;;;16.30;15.40;;;;;;;;;;4992643;28;20443;-54
2023/03/23 05:29:35;;;;;;;16.45;15.55;;;;;;;;;;4992609;28;20041;-56
2023/03/23 05:32:05;;;;;;;15.80;14.90;;;;;;;;;;4991941;28;20483;-57
2023/03/23 05:34:32;;;;;;;13.98;13.18;;;;;;;;;;5005260;28;20077;-58
2023/03/23 05:37:02;;;;;;;14.63;13.80;;;;;;;;;;4994668;28;20046;-56
2023/03/23 05:39:29;;;;;;;15.80;14.90;;;;;;;;;;4992759;28;20030;-56
2023/03/23 05:41:54;;;;;;;15.77;14.88;;;;;;;;;;4997140;28;20703;-53
2023/03/23 05:44:20;;;;;;;16.17;15.27;;;;;;;;;;4995212;28;20117;-53
2023/03/23 05:46:46;;;;;;;17.00;16.05;;;;;;;;;;4994994;28;20526;-50
2023/03/23 05:49:13;;;;;;;17.02;16.08;;;;;;;;;;4995738;28;20088;-49
2023/03/23 05:51:39;;;;;;;19.83;18.73;;;;;;;;;;4994390;28;20153;-49
2023/03/23 05:54:05;;;;;;;20.70;19.60;;;;;;;;;;4997035;28;20038;-51
2023/03/23 05:56:30;;;;;;;20.52;19.40;;;;;;;;;;4997851;28;20034;-50
2023/03/23 05:58:56;;;;;;;20.35;19.25;;;;;;;;;;4998424;28;20041;-50
2023/03/23 06:01:22;;;;;;;28.33;26.85;;;;;;;;;;4998029;28;20644;-49
2023/03/23 06:03:51;;;;;;;27.27;25.65;;;;;;;;;;4997093;28;20789;-49
2023/03/23 06:06:16;;;;;;;28.40;26.92;;;;;;;;;;4995967;28;20479;-48
2023/03/23 06:08:42;;;;;;;29.83;28.27;;;;;;;;;;4995415;28;20042;-52
2023/03/23 06:11:08;;;;;;;29.02;27.45;;;;;;;;;;4996877;28;20131;-50
2023/03/23 06:13:33;;;;;;;29.50;27.95;;;;;;;;;;4996614;28;20109;-49
2023/03/23 06:15:59;;;;;;;30.08;28.52;;;;;;;;;;4999474;28;20049;-49
2023/03/23 06:18:24;;;;;;;25.73;24.35;;;;;;;;;;4996756;28;20072;-49
2023/03/23 06:20:50;;;;;;;25.38;24.05;;;;;;;;;;4999073;28;20590;-51
2023/03/23 06:23:16;;;;;;;23.50;22.25;;;;;;;;;;4996674;28;20033;-49
2023/03/23 06:25:42;;;;;;;22.65;21.45;;;;;;;;;;4994935;28;20736;-49
2023/03/23 06:28:09;;;;;;;20.77;19.65;;;;;;;;;;4996018;28;20048;-51
2023/03/23 06:30:35;;;;;;;18.55;17.45;;;;;;;;;;4994747;28;20034;-49
2023/03/23 06:33:02;;;;;;;18.25;17.25;;;;;;;;;;4991670;28;20120;-48
2023/03/23 06:35:27;;;;;;;17.15;16.17;;;;;;;;;;4996445;28;20088;-49
2023/03/23 06:37:53;;;;;;;15.50;14.60;;;;;;;;;;4994180;28;20475;-49
2023/03/23 06:40:19;;;;;;;15.70;14.80;;;;;;;;;;4997590;28;20095;-47
2023/03/23 06:42:44;;;;;;;13.93;13.13;;;;;;;;;;4996958;28;20046;-47
2023/03/23 06:45:10;;;;;;;13.15;12.35;;;;;;;;;;4995976;28;20030;-47
2023/03/23 06:47:35;;;;;;;12.18;11.48;;;;;;;;;;4994913;28;20416;-51
2023/03/23 06:50:01;;;;;;;12.63;11.93;;;;;;;;;;4996026;28;20045;-50
2023/03/23 06:52:27;;;;;;;11.23;10.52;;;;;;;;;;4995444;28;20038;-50
2023/03/23 06:54:52;;;;;;;11.88;11.18;;;;;;;;;;4994087;28;20120;-48
2023/03/23 06:57:19;;;;;;;12.85;12.13;;;;;;;;;;4998209;28;20038;-48
2023/03/23 06:59:45;;;;;;;12.18;11.48;;;;;;;;;;4995503;28;20120;-54
2023/03/23 07:02:12;;;;;;;11.60;10.90;;;;;;;;;;4996173;28;20140;-48
2023/03/23 07:04:38;;;;;;;11.10;10.40;;;;;;;;;;4994683;28;20056;-51
2023/03/23 07:07:05;;;;;;;11.85;11.15;;;;;;;;;;4997864;28;20533;-50
2023/03/23 07:09:31;;;;;;;11.70;11.00;;;;;;;;;;4994236;28;20030;-48
2023/03/23 07:11:56;;;;;;;11.73;11.02;;;;;;;;;;4998270;28;20044;-52
2023/03/23 07:14:22;;;;;;;12.02;11.32;;;;;;;;;;5013602;28;20043;-54
2023/03/23 07:16:48;;;;;;;11.70;10.95;;;;;;;;;;4998767;28;20058;-54
2023/03/23 07:19:13;;;;;;;12.20;11.50;;;;;;;;;;4997941;28;20052;-54
2023/03/23 07:21:39;;;;;;;10.80;10.20;;;;;;;;;;4998940;28;20583;-52
2023/03/23 07:24:04;;;;;;;11.90;11.20;;;;;;;;;;5002142;28;20034;-51
2023/03/23 07:26:30;;;;;;;12.00;11.30;;;;;;;;;;4998879;28;21011;-51
2023/03/23 07:28:55;;;;;;;11.63;10.93;;;;;;;;;;4996818;28;20042;-53
2023/03/23 07:31:21;;;;;;;11.18;10.48;;;;;;;;;;4995419;28;20083;-49
2023/03/23 07:33:47;;;;;;;12.18;11.38;;;;;;;;;;4996809;28;20104;-53
2023/03/23 07:36:12;;;;;;;12.25;11.55;;;;;;;;;;4998955;28;20034;-53
2023/03/23 07:38:38;;;;;;;11.07;10.40;;;;;;;;;;4995987;28;20103;-52
2023/03/23 07:41:05;;;;;;;10.40;9.80;;;;;;;;;;4997838;28;20038;-51
2023/03/23 07:43:30;;;;;;;11.13;10.43;;;;;;;;;;4996665;28;20038;-51
2023/03/23 07:45:56;;;;;;;10.77;10.18;;;;;;;;;;4997581;28;20061;-48
2023/03/23 07:48:21;;;;;;;12.65;11.85;;;;;;;;;;4997030;28;20045;-54
2023/03/23 07:50:47;;;;;;;11.75;11.05;;;;;;;;;;4997340;28;20030;-54
2023/03/23 07:53:13;;;;;;;11.73;11.02;;;;;;;;;;4996774;28;20101;-51
2023/03/23 07:55:39;;;;;;;12.40;11.60;;;;;;;;;;4995649;28;20030;-48
2023/03/23 07:58:04;;;;;;;11.07;10.38;;;;;;;;;;4996535;28;20060;-51
2023/03/23 08:00:29;;;;;;;11.10;10.40;;;;;;;;;;4995880;28;20397;-52
2023/03/23 08:02:57;;;;;;;12.55;11.55;;;;;;;;;;4995767;28;21321;-53
2023/03/23 08:05:25;;;;;;;11.63;10.82;;;;;;;;;;4995435;28;20045;-50
2023/03/23 08:07:51;;;;;;;10.52;9.82;;;;;;;;;;5016616;28;20546;-54
2023/03/23 08:10:17;;;;;;;10.75;10.07;;;;;;;;;;4997591;28;20030;-55
2023/03/23 08:12:44;;;;;;;10.73;10.05;;;;;;;;;;4995543;28;20052;-54
2023/03/23 08:15:17;;;;;;;10.35;9.75;;;;;;;;;;4997100;28;20127;-48
2023/03/23 08:17:43;;;;;;;10.18;9.57;;;;;;;;;;4995363;28;20368;-53
2023/03/23 08:20:13;;;;;;;10.88;10.18;;;;;;;;;;4994848;28;20045;-54
2023/03/23 08:22:40;;;;;;;11.35;10.65;;;;;;;;;;4989228;28;20041;-52
2023/03/23 08:25:07;;;;;;;11.02;10.32;;;;;;;;;;4995990;28;20372;-52
2023/03/23 08:27:33;;;;;;;10.55;9.95;;;;;;;;;;4992909;28;20038;-54
2023/03/23 08:29:59;;;;;;;10.52;9.90;;;;;;;;;;4991459;28;20507;-54
2023/03/23 08:32:25;;;;;;;10.93;10.23;;;;;;;;;;4993987;28;20105;-54
2023/03/23 08:34:50;;;;;;;10.85;10.15;;;;;;;;;;4992897;28;20084;-51
2023/03/23 08:37:16;;;;;;;10.73;10.05;;;;;;;;;;4997209;28;20522;-49
2023/03/23 08:39:42;;;;;;;11.55;10.85;;;;;;;;;;4993148;28;20477;-49
2023/03/23 08:42:08;;;;;;;10.18;9.48;;;;;;;;;;4996697;28;20104;-54
2023/03/23 08:44:34;;;;;;;11.60;10.90;;;;;;;;;;4995886;28;20025;-54
2023/03/23 08:47:00;;;;;;;11.00;10.30;;;;;;;;;;4995366;28;20098;-51
2023/03/23 08:49:25;;;;;;;10.32;9.73;;;;;;;;;;4993589;28;20077;-53
2023/03/23 08:51:51;;;;;;;10.20;9.60;;;;;;;;;;4993600;28;20092;-54
2023/03/23 08:54:17;;;;;;;10.80;10.10;;;;;;;;;;4994590;28;20045;-49
2023/03/23 08:56:42;;;;;;;11.02;10.32;;;;;;;;;;4994700;28;20572;-52
2023/03/23 08:59:08;;;;;;;11.32;10.63;;;;;;;;;;4993756;28;20133;-50
2023/03/23 09:01:34;;;;;;;11.52;10.82;;;;;;;;;;4993404;28;20068;-52
2023/03/23 09:03:59;;;;;;;10.40;9.80;;;;;;;;;;4994736;28;20069;-54
2023/03/23 09:06:25;;;;;;;11.23;10.52;;;;;;;;;;4993397;28;20034;-51
2023/03/23 09:08:51;;;;;;;11.13;10.32;;;;;;;;;;4993037;28;20033;-48
2023/03/23 09:11:17;;;;;;;11.65;10.95;;;;;;;;;;4993115;28;20038;-52
2023/03/23 09:13:42;;;;;;;11.63;10.93;;;;;;;;;;4996886;28;20122;-49
2023/03/23 09:16:08;;;;;;;10.95;10.25;;;;;;;;;;4994312;28;20065;-51
2023/03/23 09:18:34;;;;;;;11.25;10.55;;;;;;;;;;4990467;28;20034;-49
2023/03/23 09:21:01;;;;;;;11.35;10.65;;;;;;;;;;4989799;28;20277;-53
2023/03/23 09:23:27;;;;;;;12.10;11.40;;;;;;;;;;4991885;28;20056;-54
2023/03/23 09:25:52;;;;;;;14.38;13.48;;;;;;;;;;4993140;28;20030;-49
2023/03/23 09:28:19;;;;;;;13.80;13.00;;;;;;;;;;4992606;28;20113;-49
2023/03/23 09:30:45;;;;;;;14.65;13.75;;;;;;;;;;4993897;28;20064;-54
2023/03/23 09:33:11;;;;;;;16.83;15.93;;;;;;;;;;4993592;28;20038;-54
2023/03/23 09:35:38;;;;;;;17.00;16.02;;;;;;;;;;4990268;28;20030;-54
2023/03/23 09:38:04;;;;;;;17.00;16.00;;;;;;;;;;4993478;28;20030;-52
2023/03/23 09:40:48;;;;;;;18.35;17.35;;;;;;;;;;4993213;28;20373;-54
2023/03/23 09:43:45;;;;;;;17.35;16.40;;;;;;;;;;4993099;28;20376;-54
2023/03/23 09:46:19;;;;;;;18.17;17.17;;;;;;;;;;4994786;28;20095;-55
2023/03/23 09:48:53;;;;;;;18.33;17.23;;;;;;;;;;4991372;28;20034;-54
2023/03/23 09:51:45;;;;;;;18.75;17.23;;;;;;;;;;4994237;28;20088;-54
2023/03/23 09:54:13;;;;;;;18.90;17.80;;;;;;;;;;4985715;28;20073;-51
2023/03/23 09:56:39;;;;;;;19.13;18.02;;;;;;;;;;4995204;28;20531;-56
2023/03/23 09:59:24;;;;;;;16.52;15.52;;;;;;;;;;4991570;28;20100;-56
2023/03/23 10:01:58;;;;;;;15.57;14.63;;;;;;;;;;4993635;28;20137;-53
2023/03/23 10:04:38;;;;;;;14.10;13.30;;;;;;;;;;4991970;28;20130;-51
2023/03/23 10:07:13;;;;;;;14.60;13.77;;;;;;;;;;4994359;28;20045;-50
2023/03/23 10:09:40;;;;;;;13.77;12.98;;;;;;;;;;4992984;28;20037;-55
2023/03/23 10:12:11;;;;;;;14.05;13.20;;;;;;;;;;4994709;28;20041;-54
2023/03/23 10:14:51;;;;;;;16.33;15.43;;;;;;;;;;4992152;28;20034;-53
2023/03/23 10:17:24;;;;;;;13.63;12.83;;;;;;;;;;4994532;28;20034;-52
2023/03/23 10:20:17;;;;;;;16.15;15.25;;;;;;;;;;4990752;28;20030;-53
2023/03/23 10:22:55;;;;;;;20.50;19.40;;;;;;;;;;5008935;28;20471;-54
2023/03/23 10:25:26;;;;;;;26.45;25.05;;;;;;;;;;4992424;28;20627;-55
2023/03/23 10:27:54;;;;;;;;;;;;;;;;;;4997350;28;20033;-50
2023/03/23 10:30:42;;;;;;;20.13;19.05;;;;;;;;;;4999951;28;20016;-51
2023/03/23 10:33:23;;;;;;;22.42;21.23;;;;;;;;;;4997773;28;20764;-48
2023/03/23 10:35:52;;;;;;;;;;;;;;;;;;4996970;28;20038;-51
2023/03/23 10:38:29;;;;;;;19.05;18.00;;;;;;;;;;4997615;28;19917;-52
2023/03/23 10:41:18;;;;;;;21.75;20.58;;;;;;;;;;4994395;28;20042;-50
2023/03/23 10:43:49;;;;;;;21.77;20.60;;;;;;;;;;4999605;28;20630;-48
2023/03/23 10:46:33;;;;;;;;;;;;;;;;;;5000979;28;20033;-52
2023/03/23 10:49:02;;;;;;;18.92;17.90;;;;;;;;;;4994623;28;19956;-49
2023/03/23 10:51:36;;;;;;;21.10;19.95;;;;;;;;;;5009769;28;20056;-55
2023/03/23 10:54:04;;;;;;;20.50;19.40;;;;;;;;;;4997120;28;20638;-56
2023/03/23 10:56:44;;;;;;;17.73;16.67;;;;;;;;;;4997210;28;20392;-55
2023/03/23 10:59:21;;;;;;;17.95;16.92;;;;;;;;;;4991957;28;20442;-55
2023/03/23 11:01:50;;;;;;;17.58;16.58;;;;;;;;;;4995408;28;20065;-54
2023/03/23 11:04:17;;;;;;;18.52;17.52;;;;;;;;;;4995634;28;20368;-54
2023/03/23 11:06:50;;;;;;;16.92;16.00;;;;;;;;;;4997068;28;20085;-50
2023/03/23 11:09:20;;;;;;;17.17;16.20;;;;;;;;;;4996687;28;20530;-54
2023/03/23 11:11:54;;;;;;;16.20;15.30;;;;;;;;;;4996691;28;20032;-55
2023/03/23 11:14:29;;;;;;;13.90;13.10;;;;;;;;;;4995722;28;20045;-52
2023/03/23 11:17:03;;;;;;;15.63;14.73;;;;;;;;;;4995195;28;20096;-52
2023/03/23 11:19:35;;;;;;;13.73;12.93;;;;;;;;;;4993037;28;20369;-55
2023/03/23 11:22:07;;;;;;;14.77;13.95;;;;;;;;;;5000020;28;20049;-54
2023/03/23 11:24:36;;;;;;;13.93;13.13;;;;;;;;;;4995300;28;20388;-55
2023/03/23 11:27:06;;;;;;;12.20;11.50;;;;;;;;;;4993901;28;20442;-54
2023/03/23 11:29:33;;;;;;;13.38;12.57;;;;;;;;;;4991739;28;20038;-53
2023/03/23 11:31:58;;;;;;;12.27;11.57;;;;;;;;;;4994589;28;20093;-54
2023/03/23 11:34:30;;;;;;;13.30;12.50;;;;;;;;;;4993954;28;20707;-55
2023/03/23 11:37:07;;;;;;;13.00;12.25;;;;;;;;;;5010213;28;20508;-52
2023/03/23 11:39:58;;;;;;;12.18;11.48;;;;;;;;;;4995121;28;20038;-55
2023/03/23 11:42:36;;;;;;;12.50;11.75;;;;;;;;;;4996689;28;20041;-54
2023/03/23 11:45:17;;;;;;;11.18;10.48;;;;;;;;;;4995388;28;20037;-55
2023/03/23 11:47:58;;;;;;;12.55;11.80;;;;;;;;;;4995646;28;20065;-54
2023/03/23 11:50:29;;;;;;;13.32;12.52;;;;;;;;;;4994943;28;20026;-51
2023/03/23 11:53:10;;;;;;;13.10;12.30;;;;;;;;;;4995335;28;20038;-51
2023/03/23 11:56:08;;;;;;;13.25;12.45;;;;;;;;;;4995678;28;20065;-55
2023/03/23 11:58:33;;;;;;;13.80;13.00;;;;;;;;;;4995568;28;20042;-54
2023/03/23 12:01:09;;;;;;;14.85;13.95;;;;;;;;;;5008982;28;20045;-48
2023/03/23 12:04:05;;;;;;;18.17;17.17;;;;;;;;;;4995230;28;20096;-54
2023/03/23 12:06:54;;;;;;;21.17;20.02;;;;;;;;;;4995253;28;20042;-54
2023/03/23 12:09:19;;;;;;;24.63;23.33;;;;;;;;;;4993272;28;20124;-54
2023/03/23 12:12:17;;;;;;;24.92;23.60;;;;;;;;;;4998210;28;20038;-49
2023/03/23 12:15:17;;;;;;;24.38;23.05;;;;;;;;;;4995591;28;20048;-51
2023/03/23 12:18:00;;;;;;;23.40;22.13;;;;;;;;;;4995625;28;20325;-55
2023/03/23 12:20:36;;;;;;;22.80;21.55;;;;;;;;;;4993789;28;20030;-55
2023/03/23 12:23:08;;;;;;;16.90;15.98;;;;;;;;;;4994639;28;20038;-52
2023/03/23 12:25:43;;;;;;;18.30;17.02;;;;;;;;;;4996012;28;20084;-54
2023/03/23 12:28:23;;;;;;;15.82;14.93;;;;;;;;;;4996949;28;20034;-54
2023/03/23 12:31:37;;;;;;;12.18;11.48;;;;;;;;;;4994617;28;20033;-54
2023/03/23 12:34:32;;;;;;;11.80;11.10;;;;;;;;;;4955646;28;20042;-50
2023/03/23 12:37:16;;;;;;;11.65;10.95;;;;;;;;;;4990990;28;20042;-54
2023/03/23 12:39:54;;;;;;;12.30;11.60;;;;;;;;;;4988561;28;20084;-51
2023/03/23 12:42:37;;;;;;;10.90;10.20;;;;;;;;;;5007913;28;20037;-53
2023/03/23 12:45:29;;;;;;;12.32;11.63;;;;;;;;;;4990666;28;20473;-47
2023/03/23 12:48:00;;;;;;;12.57;11.82;;;;;;;;;;4991468;28;20041;-54
2023/03/23 12:50:35;;;;;;;11.30;10.60;;;;;;;;;;4990681;28;20122;-53
2023/03/23 12:53:21;;;;;;;12.02;11.32;;;;;;;;;;4996727;28;20041;-53
2023/03/23 12:55:51;;;;;;;12.55;11.85;;;;;;;;;;5011944;28;20022;-55
2023/03/23 12:58:21;;;;;;;11.60;10.90;;;;;;;;;;4994895;28;20137;-55
2023/03/23 13:01:12;;;;;;;12.05;11.35;;;;;;;;;;4994867;28;20034;-49
2023/03/23 13:03:48;;;;;;;11.57;10.88;;;;;;;;;;4993890;28;20038;-55
2023/03/23 13:06:26;;;;;;;11.80;11.10;;;;;;;;;;4994657;28;20061;-55
2023/03/23 13:09:03;;;;;;;11.70;11.00;;;;;;;;;;5007447;28;20044;-55
2023/03/23 13:11:42;;;;;;;12.07;11.38;;;;;;;;;;4993275;28;20096;-51
2023/03/23 13:14:30;;;;;;;11.27;10.57;;;;;;;;;;4997040;28;20042;-54
2023/03/23 13:17:24;;;;;;;11.95;11.25;;;;;;;;;;4993654;28;20057;-54
2023/03/23 13:20:32;;;;;;;11.30;10.60;;;;;;;;;;4994781;28;20562;-54
2023/03/23 13:23:13;;;;;;;13.77;12.98;;;;;;;;;;4918808;29;20146;-55
2023/03/23 13:25:50;;;;;;;15.20;14.32;;;;;;;;;;4992170;28;20376;-55
2023/03/23 13:28:20;;;;;;;15.02;14.20;;;;;;;;;;4992174;28;20053;-55
2023/03/23 13:31:00;;;;;;;17.05;16.13;;;;;;;;;;4990441;28;20030;-55
2023/03/23 13:33:33;;;;;;;19.23;18.13;;;;;;;;;;4991390;28;20034;-53
2023/03/23 13:36:06;;;;;;;17.83;16.83;;;;;;;;;;4992663;28;20037;-50
2023/03/23 13:38:32;;;;;;;19.83;18.60;;;;;;;;;;4993243;28;20034;-56
2023/03/23 13:41:05;;;;;;;20.38;19.27;;;;;;;;;;4993296;28;20054;-54
2023/03/23 13:43:36;;;;;;;18.23;17.23;;;;;;;;;;4995907;28;20476;-56
2023/03/23 13:46:13;;;;;;;;;;;;;;;;;;4994187;28;20046;-55
2023/03/23 13:49:10;;;;;;;12.90;12.18;;;;;;;;;;4991690;28;19917;-51
2023/03/23 13:51:52;;;;;;;12.93;12.23;;;;;;;;;;4971724;28;20038;-51
2023/03/23 13:54:26;;;;;;;13.68;12.88;;;;;;;;;;4991916;28;20375;-54
2023/03/23 13:56:54;;;;;;;12.63;11.82;;;;;;;;;;4991987;28;20113;-51
2023/03/23 13:59:26;;;;;;;12.40;11.70;;;;;;;;;;4990191;28;20030;-49
2023/03/23 14:01:52;;;;;;;12.20;11.50;;;;;;;;;;4996892;28;20034;-53
2023/03/23 14:04:19;;;;;;;11.75;11.05;;;;;;;;;;4997377;28;20168;-55
2023/03/23 14:06:47;;;;;;;11.68;10.98;;;;;;;;;;4996645;28;20038;-56
2023/03/23 14:09:17;;;;;;;11.52;10.82;;;;;;;;;;4995849;28;20188;-52
2023/03/23 14:11:55;;;;;;;11.77;11.07;;;;;;;;;;4994086;28;20455;-53
2023/03/23 14:14:28;;;;;;;12.10;11.40;;;;;;;;;;4995874;28;20981;-51
2023/03/23 14:17:06;;;;;;;10.70;10.10;;;;;;;;;;4997217;28;20469;-54
2023/03/23 14:19:32;;;;;;;11.85;11.15;;;;;;;;;;4997338;28;20038;-55
2023/03/23 14:21:59;;;;;;;12.68;11.98;;;;;;;;;;4994602;28;20543;-56
2023/03/23 14:24:33;;;;;;;11.75;11.05;;;;;;;;;;4992619;28;20156;-52
2023/03/23 14:27:10;;;;;;;11.95;11.25;;;;;;;;;;5013465;28;20128;-52
2023/03/23 14:29:36;;;;;;;12.20;11.50;;;;;;;;;;5003610;28;20109;-55
2023/03/23 14:32:02;;;;;;;12.25;11.55;;;;;;;;;;4997523;28;20172;-56
2023/03/23 14:34:32;;;;;;;13.45;12.65;;;;;;;;;;4996851;28;20113;-56
2023/03/23 14:36:58;;;;;;;13.32;12.52;;;;;;;;;;4998371;28;20050;-53
2023/03/23 14:39:27;;;;;;;13.35;12.55;;;;;;;;;;4996496;28;20701;-56
2023/03/23 14:41:56;;;;;;;13.27;12.50;;;;;;;;;;4995508;28;20041;-56